sensor_id;sensor_type;location;lat;lon;timestamp;temperature;humidity
1461;DHT22;724;49.910;12.530;2023-10-13T00:01:47;13.20;99.90
1461;DHT22;724;49.910;12.530;2023-10-13T00:04:14;13.20;99.90
1461;DHT22;724;49.910;12.530;2023-10-13T00:06:40;13.30;99.90
1461;DHT22;724;49.910;12.530;2023-10-13T00:09:08;13.30;99.90
1461;DHT22;724;49.910;12.530;2023-10-13T00:11:41;13.30;99.90
1461;DHT22;724;49.910;12.530;2023-10-13T00:14:11;13.30;99.90
1461;DHT22;724;49.910;12.530;2023-10-13T00:16:39;13.30;99.90
1461;DHT22;724;49.910;12.530;2023-10-13T00:19:08;13.30;99.90
1461;DHT22;724;49.910;12.530;2023-10-13T00:21:38;13.30;99.90
1461;DHT22;724;49.910;12.530;2023-10-13T00:24:08;13.30;99.90
1461;DHT22;724;49.910;12.530;2023-10-13T00:26:39;13.30;99.90
1461;DHT22;724;49.910;12.530;2023-10-13T00:29:08;13.40;99.90
1461;DHT22;724;49.910;12.530;2023-10-13T00:31:41;13.40;99.90
1461;DHT22;724;49.910;12.530;2023-10-13T00:34:11;13.40;99.90
1461;DHT22;724;49.910;12.530;2023-10-13T00:36:42;13.40;99.90
1461;DHT22;724;49.910;12.530;2023-10-13T00:39:14;13.40;99.90
1461;DHT22;724;49.910;12.530;2023-10-13T00:41:42;13.30;99.90
1461;DHT22;724;49.910;12.530;2023-10-13T00:44:18;13.30;99.90
1461;DHT22;724;49.910;12.530;2023-10-13T00:46:51;13.30;99.90
1461;DHT22;724;49.910;12.530;2023-10-13T00:49:22;13.40;99.90
1461;DHT22;724;49.910;12.530;2023-10-13T00:51:49;13.40;99.90
1461;DHT22;724;49.910;12.530;2023-10-13T00:54:18;13.30;99.90
1461;DHT22;724;49.910;12.530;2023-10-13T00:56:46;13.30;99.90
1461;DHT22;724;49.910;12.530;2023-10-13T00:59:14;13.40;99.90
1461;DHT22;724;49.910;12.530;2023-10-13T01:01:40;13.40;99.90
1461;DHT22;724;49.910;12.530;2023-10-13T01:04:10;13.40;99.90
1461;DHT22;724;49.910;12.530;2023-10-13T01:06:39;13.40;99.90
1461;DHT22;724;49.910;12.530;2023-10-13T01:09:07;13.40;99.90
1461;DHT22;724;49.910;12.530;2023-10-13T01:11:38;13.40;99.90
1461;DHT22;724;49.910;12.530;2023-10-13T01:14:05;13.40;99.90
1461;DHT22;724;49.910;12.530;2023-10-13T01:16:31;13.40;99.90
1461;DHT22;724;49.910;12.530;2023-10-13T01:18:59;13.40;99.90
1461;DHT22;724;49.910;12.530;2023-10-13T01:21:26;13.40;99.90
1461;DHT22;724;49.910;12.530;2023-10-13T01:23:55;13.40;99.90
1461;DHT22;724;49.910;12.530;2023-10-13T01:26:21;13.40;99.90
1461;DHT22;724;49.910;12.530;2023-10-13T01:28:50;13.50;99.90
1461;DHT22;724;49.910;12.530;2023-10-13T01:31:16;13.50;99.90
1461;DHT22;724;49.910;12.530;2023-10-13T01:33:57;13.50;99.90
1461;DHT22;724;49.910;12.530;2023-10-13T01:36:26;13.50;99.90
1461;DHT22;724;49.910;12.530;2023-10-13T01:38:54;13.50;99.90
1461;DHT22;724;49.910;12.530;2023-10-13T01:41:22;13.50;99.90
1461;DHT22;724;49.910;12.530;2023-10-13T01:43:48;13.50;99.90
1461;DHT22;724;49.910;12.530;2023-10-13T01:46:15;13.50;99.90
1461;DHT22;724;49.910;12.530;2023-10-13T01:48:44;13.50;99.90
1461;DHT22;724;49.910;12.530;2023-10-13T01:51:12;13.50;99.90
1461;DHT22;724;49.910;12.530;2023-10-13T01:53:38;13.50;99.90
1461;DHT22;724;49.910;12.530;2023-10-13T01:56:07;13.60;99.90
1461;DHT22;724;49.910;12.530;2023-10-13T01:58:37;13.50;99.90
1461;DHT22;724;49.910;12.530;2023-10-13T02:01:07;13.50;99.90
1461;DHT22;724;49.910;12.530;2023-10-13T02:03:33;13.60;99.90
1461;DHT22;724;49.910;12.530;2023-10-13T02:06:06;13.60;99.90
1461;DHT22;724;49.910;12.530;2023-10-13T02:08:36;13.50;99.90
1461;DHT22;724;49.910;12.530;2023-10-13T02:11:10;13.50;99.90
1461;DHT22;724;49.910;12.530;2023-10-13T02:13:37;13.60;99.90
1461;DHT22;724;49.910;12.530;2023-10-13T02:16:07;13.60;99.90
1461;DHT22;724;49.910;12.530;2023-10-13T02:18:37;13.60;99.90
1461;DHT22;724;49.910;12.530;2023-10-13T02:21:08;13.60;99.90
1461;DHT22;724;49.910;12.530;2023-10-13T02:23:39;13.60;99.90
1461;DHT22;724;49.910;12.530;2023-10-13T02:26:12;13.60;99.90
1461;DHT22;724;49.910;12.530;2023-10-13T02:28:52;13.60;99.90
1461;DHT22;724;49.910;12.530;2023-10-13T02:31:22;13.50;99.90
1461;DHT22;724;49.910;12.530;2023-10-13T02:33:51;13.50;99.90
1461;DHT22;724;49.910;12.530;2023-10-13T02:36:17;13.60;99.90
1461;DHT22;724;49.910;12.530;2023-10-13T02:38:48;13.60;99.90
1461;DHT22;724;49.910;12.530;2023-10-13T02:41:19;13.50;99.90
1461;DHT22;724;49.910;12.530;2023-10-13T02:43:51;13.50;99.90
1461;DHT22;724;49.910;12.530;2023-10-13T02:46:17;13.50;99.90
1461;DHT22;724;49.910;12.530;2023-10-13T02:48:47;13.50;99.90
1461;DHT22;724;49.910;12.530;2023-10-13T02:51:19;13.50;99.90
1461;DHT22;724;49.910;12.530;2023-10-13T02:53:48;13.50;99.90
1461;DHT22;724;49.910;12.530;2023-10-13T02:56:17;13.50;99.90
1461;DHT22;724;49.910;12.530;2023-10-13T02:58:47;13.60;99.90
1461;DHT22;724;49.910;12.530;2023-10-13T03:01:19;13.60;99.90
1461;DHT22;724;49.910;12.530;2023-10-13T03:03:49;13.60;99.90
1461;DHT22;724;49.910;12.530;2023-10-13T03:06:17;13.60;99.90
1461;DHT22;724;49.910;12.530;2023-10-13T03:08:47;13.60;99.90
1461;DHT22;724;49.910;12.530;2023-10-13T03:11:14;13.60;99.90
1461;DHT22;724;49.910;12.530;2023-10-13T03:13:41;13.60;99.90
1461;DHT22;724;49.910;12.530;2023-10-13T03:16:14;13.60;99.90
1461;DHT22;724;49.910;12.530;2023-10-13T03:18:43;13.60;99.90
1461;DHT22;724;49.910;12.530;2023-10-13T03:21:20;13.60;99.90
1461;DHT22;724;49.910;12.530;2023-10-13T03:23:57;13.60;99.90
1461;DHT22;724;49.910;12.530;2023-10-13T03:26:30;13.60;99.90
1461;DHT22;724;49.910;12.530;2023-10-13T03:29:04;13.60;99.90
1461;DHT22;724;49.910;12.530;2023-10-13T03:31:34;13.70;99.90
1461;DHT22;724;49.910;12.530;2023-10-13T03:34:04;13.70;99.90
1461;DHT22;724;49.910;12.530;2023-10-13T03:36:35;13.60;99.90
1461;DHT22;724;49.910;12.530;2023-10-13T03:39:16;13.60;99.90
1461;DHT22;724;49.910;12.530;2023-10-13T03:41:43;13.70;99.90
1461;DHT22;724;49.910;12.530;2023-10-13T03:44:12;13.70;99.90
1461;DHT22;724;49.910;12.530;2023-10-13T03:46:44;13.70;99.90
1461;DHT22;724;49.910;12.530;2023-10-13T03:49:13;13.70;99.90
1461;DHT22;724;49.910;12.530;2023-10-13T03:51:40;13.70;99.90
1461;DHT22;724;49.910;12.530;2023-10-13T03:54:08;13.70;99.90
1461;DHT22;724;49.910;12.530;2023-10-13T03:56:35;13.80;99.90
1461;DHT22;724;49.910;12.530;2023-10-13T03:59:06;13.80;99.90
1461;DHT22;724;49.910;12.530;2023-10-13T04:01:36;13.80;99.90
1461;DHT22;724;49.910;12.530;2023-10-13T04:04:12;13.80;99.90
1461;DHT22;724;49.910;12.530;2023-10-13T04:06:41;13.80;99.90
1461;DHT22;724;49.910;12.530;2023-10-13T04:09:39;13.90;99.90
1461;DHT22;724;49.910;12.530;2023-10-13T04:12:32;13.90;99.90
1461;DHT22;724;49.910;12.530;2023-10-13T04:15:17;13.90;99.90
1461;DHT22;724;49.910;12.530;2023-10-13T04:17:54;14.00;99.90
1461;DHT22;724;49.910;12.530;2023-10-13T04:20:21;14.00;99.90
1461;DHT22;724;49.910;12.530;2023-10-13T04:22:58;14.00;99.90
1461;DHT22;724;49.910;12.530;2023-10-13T04:25:42;14.00;99.90
1461;DHT22;724;49.910;12.530;2023-10-13T04:28:31;14.00;99.90
1461;DHT22;724;49.910;12.530;2023-10-13T04:31:00;14.10;99.90
1461;DHT22;724;49.910;12.530;2023-10-13T04:33:38;14.10;99.90
1461;DHT22;724;49.910;12.530;2023-10-13T04:36:17;14.10;99.90
1461;DHT22;724;49.910;12.530;2023-10-13T04:39:02;14.10;99.90
1461;DHT22;724;49.910;12.530;2023-10-13T04:41:36;14.10;99.90
1461;DHT22;724;49.910;12.530;2023-10-13T04:44:05;14.10;99.90
1461;DHT22;724;49.910;12.530;2023-10-13T04:46:46;14.10;99.90
1461;DHT22;724;49.910;12.530;2023-10-13T04:49:39;14.10;99.90
1461;DHT22;724;49.910;12.530;2023-10-13T04:52:17;14.10;99.90
1461;DHT22;724;49.910;12.530;2023-10-13T04:55:05;14.20;99.90
1461;DHT22;724;49.910;12.530;2023-10-13T04:57:59;14.20;99.90
1461;DHT22;724;49.910;12.530;2023-10-13T05:01:01;14.20;99.90
1461;DHT22;724;49.910;12.530;2023-10-13T05:03:41;14.10;99.90
1461;DHT22;724;49.910;12.530;2023-10-13T05:06:30;14.10;99.90
1461;DHT22;724;49.910;12.530;2023-10-13T05:09:14;14.20;99.90
1461;DHT22;724;49.910;12.530;2023-10-13T05:11:58;14.10;99.90
1461;DHT22;724;49.910;12.530;2023-10-13T05:14:43;14.20;99.90
1461;DHT22;724;49.910;12.530;2023-10-13T05:17:33;14.20;99.90
1461;DHT22;724;49.910;12.530;2023-10-13T05:20:17;14.20;99.90
1461;DHT22;724;49.910;12.530;2023-10-13T05:23:03;14.20;99.90
1461;DHT22;724;49.910;12.530;2023-10-13T05:25:46;14.20;99.90
1461;DHT22;724;49.910;12.530;2023-10-13T05:28:31;14.20;99.90
1461;DHT22;724;49.910;12.530;2023-10-13T05:31:15;14.20;99.90
1461;DHT22;724;49.910;12.530;2023-10-13T05:33:59;14.30;99.90
1461;DHT22;724;49.910;12.530;2023-10-13T05:36:43;14.30;99.90
1461;DHT22;724;49.910;12.530;2023-10-13T05:39:29;14.30;99.90
1461;DHT22;724;49.910;12.530;2023-10-13T05:42:13;14.30;99.90
1461;DHT22;724;49.910;12.530;2023-10-13T05:44:58;14.30;99.90
1461;DHT22;724;49.910;12.530;2023-10-13T05:47:49;14.30;99.90
1461;DHT22;724;49.910;12.530;2023-10-13T05:50:26;14.30;99.90
1461;DHT22;724;49.910;12.530;2023-10-13T05:53:15;14.30;99.90
1461;DHT22;724;49.910;12.530;2023-10-13T05:56:03;14.40;99.90
1461;DHT22;724;49.910;12.530;2023-10-13T05:58:47;14.40;99.90
1461;DHT22;724;49.910;12.530;2023-10-13T06:01:32;14.40;99.90
1461;DHT22;724;49.910;12.530;2023-10-13T06:04:16;14.40;99.90
1461;DHT22;724;49.910;12.530;2023-10-13T06:07:00;14.40;99.90
1461;DHT22;724;49.910;12.530;2023-10-13T06:09:44;14.50;99.90
1461;DHT22;724;49.910;12.530;2023-10-13T06:12:30;14.40;99.90
1461;DHT22;724;49.910;12.530;2023-10-13T06:15:14;14.50;99.90
1461;DHT22;724;49.910;12.530;2023-10-13T06:17:58;14.50;99.90
1461;DHT22;724;49.910;12.530;2023-10-13T06:20:57;14.50;99.90
1461;DHT22;724;49.910;12.530;2023-10-13T06:23:41;14.50;99.90
1461;DHT22;724;49.910;12.530;2023-10-13T06:26:25;14.50;99.90
1461;DHT22;724;49.910;12.530;2023-10-13T06:29:11;14.50;99.90
1461;DHT22;724;49.910;12.530;2023-10-13T06:31:45;14.60;99.90
1461;DHT22;724;49.910;12.530;2023-10-13T06:34:12;14.60;99.90
1461;DHT22;724;49.910;12.530;2023-10-13T06:36:41;14.70;99.90
1461;DHT22;724;49.910;12.530;2023-10-13T06:39:11;14.80;99.90
1461;DHT22;724;49.910;12.530;2023-10-13T06:42:00;14.80;99.90
1461;DHT22;724;49.910;12.530;2023-10-13T06:44:30;14.80;99.90
1461;DHT22;724;49.910;12.530;2023-10-13T06:46:58;14.80;99.90
1461;DHT22;724;49.910;12.530;2023-10-13T06:49:24;14.90;99.90
1461;DHT22;724;49.910;12.530;2023-10-13T06:51:54;15.00;99.90
1461;DHT22;724;49.910;12.530;2023-10-13T06:54:26;15.00;99.90
1461;DHT22;724;49.910;12.530;2023-10-13T06:56:54;15.00;99.90
1461;DHT22;724;49.910;12.530;2023-10-13T06:59:21;14.90;99.90
1461;DHT22;724;49.910;12.530;2023-10-13T07:01:53;14.90;44.30
1461;DHT22;724;49.910;12.530;2023-10-13T07:04:26;14.90;1.00
1461;DHT22;724;49.910;12.530;2023-10-13T07:06:53;15.10;1.00
1461;DHT22;724;49.910;12.530;2023-10-13T07:09:20;15.40;1.00
1461;DHT22;724;49.910;12.530;2023-10-13T07:12:05;15.70;1.00
1461;DHT22;724;49.910;12.530;2023-10-13T07:14:45;15.80;1.00
1461;DHT22;724;49.910;12.530;2023-10-13T07:17:19;15.60;1.00
1461;DHT22;724;49.910;12.530;2023-10-13T07:19:50;15.50;1.00
1461;DHT22;724;49.910;12.530;2023-10-13T07:22:19;15.50;1.00
1461;DHT22;724;49.910;12.530;2023-10-13T07:24:48;15.60;1.00
1461;DHT22;724;49.910;12.530;2023-10-13T07:27:15;15.60;1.00
1461;DHT22;724;49.910;12.530;2023-10-13T07:29:48;15.60;1.00
1461;DHT22;724;49.910;12.530;2023-10-13T07:32:23;15.70;99.90
1461;DHT22;724;49.910;12.530;2023-10-13T07:34:52;15.70;99.90
1461;DHT22;724;49.910;12.530;2023-10-13T07:37:21;15.60;99.90
1461;DHT22;724;49.910;12.530;2023-10-13T07:39:51;15.70;99.90
1461;DHT22;724;49.910;12.530;2023-10-13T07:42:17;15.70;96.50
1461;DHT22;724;49.910;12.530;2023-10-13T07:44:47;15.80;1.00
1461;DHT22;724;49.910;12.530;2023-10-13T07:47:14;15.80;1.00
1461;DHT22;724;49.910;12.530;2023-10-13T07:49:44;15.70;99.90
1461;DHT22;724;49.910;12.530;2023-10-13T07:52:16;15.80;99.90
1461;DHT22;724;49.910;12.530;2023-10-13T07:55:01;15.90;71.80
1461;DHT22;724;49.910;12.530;2023-10-13T07:57:36;16.00;1.00
1461;DHT22;724;49.910;12.530;2023-10-13T08:00:19;16.00;1.00
1461;DHT22;724;49.910;12.530;2023-10-13T08:02:56;16.00;1.00
1461;DHT22;724;49.910;12.530;2023-10-13T08:05:34;16.10;1.00
1461;DHT22;724;49.910;12.530;2023-10-13T08:08:21;16.20;1.00
1461;DHT22;724;49.910;12.530;2023-10-13T08:10:51;16.30;99.90
1461;DHT22;724;49.910;12.530;2023-10-13T08:13:21;16.30;99.90
1461;DHT22;724;49.910;12.530;2023-10-13T08:15:48;16.30;99.90
1461;DHT22;724;49.910;12.530;2023-10-13T08:18:19;16.20;99.90
1461;DHT22;724;49.910;12.530;2023-10-13T08:20:57;16.30;99.90
1461;DHT22;724;49.910;12.530;2023-10-13T08:23:28;16.20;99.90
1461;DHT22;724;49.910;12.530;2023-10-13T08:26:21;16.40;99.90
1461;DHT22;724;49.910;12.530;2023-10-13T08:29:19;16.60;63.50
1461;DHT22;724;49.910;12.530;2023-10-13T08:32:04;16.80;1.00
1461;DHT22;724;49.910;12.530;2023-10-13T08:34:48;17.20;1.00
1461;DHT22;724;49.910;12.530;2023-10-13T08:37:37;17.60;1.00
1461;DHT22;724;49.910;12.530;2023-10-13T08:40:26;17.90;1.00
1461;DHT22;724;49.910;12.530;2023-10-13T08:43:24;17.70;1.00
1461;DHT22;724;49.910;12.530;2023-10-13T08:46:05;17.70;1.00
1461;DHT22;724;49.910;12.530;2023-10-13T08:48:36;17.60;1.00
1461;DHT22;724;49.910;12.530;2023-10-13T08:51:03;17.60;1.00
1461;DHT22;724;49.910;12.530;2023-10-13T08:54:00;17.90;1.00
1461;DHT22;724;49.910;12.530;2023-10-13T08:56:34;18.10;1.00
1461;DHT22;724;49.910;12.530;2023-10-13T08:59:02;18.20;99.90
1461;DHT22;724;49.910;12.530;2023-10-13T09:01:33;18.40;99.90
1461;DHT22;724;49.910;12.530;2023-10-13T09:04:06;18.60;99.90
1461;DHT22;724;49.910;12.530;2023-10-13T09:06:49;18.70;99.90
1461;DHT22;724;49.910;12.530;2023-10-13T09:09:45;18.90;99.90
1461;DHT22;724;49.910;12.530;2023-10-13T09:12:36;19.10;99.90
1461;DHT22;724;49.910;12.530;2023-10-13T09:15:07;19.30;99.90
1461;DHT22;724;49.910;12.530;2023-10-13T09:17:46;19.70;95.20
1461;DHT22;724;49.910;12.530;2023-10-13T09:20:19;19.80;13.60
1461;DHT22;724;49.910;12.530;2023-10-13T09:22:58;20.30;8.70
1461;DHT22;724;49.910;12.530;2023-10-13T09:25:36;20.30;1.00
1461;DHT22;724;49.910;12.530;2023-10-13T09:28:10;20.50;1.00
1461;DHT22;724;49.910;12.530;2023-10-13T09:30:44;21.80;1.00
1461;DHT22;724;49.910;12.530;2023-10-13T09:33:11;23.20;1.00
1461;DHT22;724;49.910;12.530;2023-10-13T09:35:43;24.00;1.00
1461;DHT22;724;49.910;12.530;2023-10-13T09:38:14;23.70;1.00
1461;DHT22;724;49.910;12.530;2023-10-13T09:40:42;23.20;1.00
1461;DHT22;724;49.910;12.530;2023-10-13T09:43:16;24.50;1.00
1461;DHT22;724;49.910;12.530;2023-10-13T09:45:45;22.50;1.00
1461;DHT22;724;49.910;12.530;2023-10-13T09:48:33;23.90;1.00
1461;DHT22;724;49.910;12.530;2023-10-13T09:51:02;25.70;1.00
1461;DHT22;724;49.910;12.530;2023-10-13T09:53:30;26.70;1.00
1461;DHT22;724;49.910;12.530;2023-10-13T09:56:03;25.10;1.00
1461;DHT22;724;49.910;12.530;2023-10-13T09:58:41;23.70;1.00
1461;DHT22;724;49.910;12.530;2023-10-13T10:01:19;22.70;1.00
1461;DHT22;724;49.910;12.530;2023-10-13T10:04:06;22.60;1.00
1461;DHT22;724;49.910;12.530;2023-10-13T10:06:34;22.60;1.00
1461;DHT22;724;49.910;12.530;2023-10-13T10:09:05;23.20;1.00
1461;DHT22;724;49.910;12.530;2023-10-13T10:12:05;22.80;1.00
1461;DHT22;724;49.910;12.530;2023-10-13T10:15:09;22.50;1.00
1461;DHT22;724;49.910;12.530;2023-10-13T10:17:41;22.70;1.00
1461;DHT22;724;49.910;12.530;2023-10-13T10:20:08;22.60;1.00
1461;DHT22;724;49.910;12.530;2023-10-13T10:22:55;22.30;1.00
1461;DHT22;724;49.910;12.530;2023-10-13T10:25:29;22.60;1.00
1461;DHT22;724;49.910;12.530;2023-10-13T10:28:02;25.00;1.00
1461;DHT22;724;49.910;12.530;2023-10-13T10:30:32;26.20;1.00
1461;DHT22;724;49.910;12.530;2023-10-13T10:33:00;26.80;1.00
1461;DHT22;724;49.910;12.530;2023-10-13T10:35:33;27.00;99.90
1461;DHT22;724;49.910;12.530;2023-10-13T10:38:07;28.10;99.90
1461;DHT22;724;49.910;12.530;2023-10-13T10:40:51;27.70;99.90
1461;DHT22;724;49.910;12.530;2023-10-13T10:43:24;25.10;99.90
1461;DHT22;724;49.910;12.530;2023-10-13T10:45:53;24.70;99.90
1461;DHT22;724;49.910;12.530;2023-10-13T10:48:25;23.60;99.90
1461;DHT22;724;49.910;12.530;2023-10-13T10:50:57;23.40;99.90
1461;DHT22;724;49.910;12.530;2023-10-13T10:53:33;23.90;99.90
1461;DHT22;724;49.910;12.530;2023-10-13T10:56:09;25.80;99.90
1461;DHT22;724;49.910;12.530;2023-10-13T10:58:47;25.30;99.90
1461;DHT22;724;49.910;12.530;2023-10-13T11:01:14;26.10;99.90
1461;DHT22;724;49.910;12.530;2023-10-13T11:03:53;25.20;99.90
1461;DHT22;724;49.910;12.530;2023-10-13T11:06:23;24.50;99.90
1461;DHT22;724;49.910;12.530;2023-10-13T11:09:01;24.60;99.90
1461;DHT22;724;49.910;12.530;2023-10-13T11:11:29;25.40;99.90
1461;DHT22;724;49.910;12.530;2023-10-13T11:14:02;25.30;99.90
1461;DHT22;724;49.910;12.530;2023-10-13T11:16:48;24.50;99.90
1461;DHT22;724;49.910;12.530;2023-10-13T11:19:20;26.10;99.90
1461;DHT22;724;49.910;12.530;2023-10-13T11:21:54;26.00;99.90
1461;DHT22;724;49.910;12.530;2023-10-13T11:24:21;25.60;99.90
1461;DHT22;724;49.910;12.530;2023-10-13T11:26:48;25.80;99.90
1461;DHT22;724;49.910;12.530;2023-10-13T11:29:17;26.50;99.90
1461;DHT22;724;49.910;12.530;2023-10-13T11:31:49;26.70;99.90
1461;DHT22;724;49.910;12.530;2023-10-13T11:34:24;26.10;99.90
1461;DHT22;724;49.910;12.530;2023-10-13T11:36:51;26.20;99.90
1461;DHT22;724;49.910;12.530;2023-10-13T11:39:18;24.90;99.90
1461;DHT22;724;49.910;12.530;2023-10-13T11:41:50;24.30;99.90
1461;DHT22;724;49.910;12.530;2023-10-13T11:44:22;23.30;99.90
1461;DHT22;724;49.910;12.530;2023-10-13T11:46:57;23.20;99.90
1461;DHT22;724;49.910;12.530;2023-10-13T11:49:42;23.70;99.90
1461;DHT22;724;49.910;12.530;2023-10-13T11:52:09;23.60;99.90
1461;DHT22;724;49.910;12.530;2023-10-13T11:54:42;23.50;99.90
1461;DHT22;724;49.910;12.530;2023-10-13T11:57:09;23.40;99.90
1461;DHT22;724;49.910;12.530;2023-10-13T11:59:37;23.50;99.90
1461;DHT22;724;49.910;12.530;2023-10-13T12:02:11;23.50;99.90
1461;DHT22;724;49.910;12.530;2023-10-13T12:04:57;23.50;99.90
1461;DHT22;724;49.910;12.530;2023-10-13T12:07:25;23.50;99.90
1461;DHT22;724;49.910;12.530;2023-10-13T12:10:06;23.60;99.90
1461;DHT22;724;49.910;12.530;2023-10-13T12:12:41;23.10;99.90
1461;DHT22;724;49.910;12.530;2023-10-13T12:15:10;23.10;99.90
1461;DHT22;724;49.910;12.530;2023-10-13T12:17:51;22.90;99.90
1461;DHT22;724;49.910;12.530;2023-10-13T12:20:18;22.70;99.90
1461;DHT22;724;49.910;12.530;2023-10-13T12:22:58;22.60;99.90
1461;DHT22;724;49.910;12.530;2023-10-13T12:25:37;22.40;99.90
1461;DHT22;724;49.910;12.530;2023-10-13T12:28:21;22.20;99.90
1461;DHT22;724;49.910;12.530;2023-10-13T12:30:50;22.00;99.90
1461;DHT22;724;49.910;12.530;2023-10-13T12:33:18;22.20;99.90
1461;DHT22;724;49.910;12.530;2023-10-13T12:35:58;22.50;99.90
1461;DHT22;724;49.910;12.530;2023-10-13T12:38:35;22.50;99.90
1461;DHT22;724;49.910;12.530;2023-10-13T12:41:20;22.20;99.90
1461;DHT22;724;49.910;12.530;2023-10-13T12:44:06;22.00;99.90
1461;DHT22;724;49.910;12.530;2023-10-13T12:46:48;22.30;99.90
1461;DHT22;724;49.910;12.530;2023-10-13T12:49:32;22.30;99.90
1461;DHT22;724;49.910;12.530;2023-10-13T12:52:15;21.70;99.90
1461;DHT22;724;49.910;12.530;2023-10-13T12:54:45;21.80;99.90
1461;DHT22;724;49.910;12.530;2023-10-13T12:57:13;21.80;99.90
1461;DHT22;724;49.910;12.530;2023-10-13T12:59:41;21.50;99.90
1461;DHT22;724;49.910;12.530;2023-10-13T13:02:09;21.80;99.90
1461;DHT22;724;49.910;12.530;2023-10-13T13:04:40;21.50;99.90
1461;DHT22;724;49.910;12.530;2023-10-13T13:07:09;21.50;99.90
1461;DHT22;724;49.910;12.530;2023-10-13T13:09:39;21.70;99.90
1461;DHT22;724;49.910;12.530;2023-10-13T13:12:06;21.80;99.90
1461;DHT22;724;49.910;12.530;2023-10-13T13:14:33;21.60;99.90
1461;DHT22;724;49.910;12.530;2023-10-13T13:17:00;21.60;99.90
1461;DHT22;724;49.910;12.530;2023-10-13T13:19:32;21.50;99.90
1461;DHT22;724;49.910;12.530;2023-10-13T13:22:02;21.40;99.90
1461;DHT22;724;49.910;12.530;2023-10-13T13:24:29;21.30;99.90
1461;DHT22;724;49.910;12.530;2023-10-13T13:26:56;21.20;99.90
1461;DHT22;724;49.910;12.530;2023-10-13T13:29:28;21.10;99.90
1461;DHT22;724;49.910;12.530;2023-10-13T13:31:57;21.10;99.90
1461;DHT22;724;49.910;12.530;2023-10-13T13:34:25;21.20;99.90
1461;DHT22;724;49.910;12.530;2023-10-13T13:36:53;21.20;99.90
1461;DHT22;724;49.910;12.530;2023-10-13T13:39:23;21.40;99.90
1461;DHT22;724;49.910;12.530;2023-10-13T13:41:56;21.30;99.90
1461;DHT22;724;49.910;12.530;2023-10-13T13:44:24;21.40;99.90
1461;DHT22;724;49.910;12.530;2023-10-13T13:46:55;21.30;99.90
1461;DHT22;724;49.910;12.530;2023-10-13T13:49:23;21.50;99.90
1461;DHT22;724;49.910;12.530;2023-10-13T13:51:56;21.40;99.90
1461;DHT22;724;49.910;12.530;2023-10-13T13:54:30;21.20;99.90
1461;DHT22;724;49.910;12.530;2023-10-13T13:56:56;21.20;99.90
1461;DHT22;724;49.910;12.530;2023-10-13T13:59:23;21.20;99.90
1461;DHT22;724;49.910;12.530;2023-10-13T14:01:50;21.10;99.90
1461;DHT22;724;49.910;12.530;2023-10-13T14:04:18;21.00;99.90
1461;DHT22;724;49.910;12.530;2023-10-13T14:06:45;20.90;99.90
1461;DHT22;724;49.910;12.530;2023-10-13T14:09:13;20.90;99.90
1461;DHT22;724;49.910;12.530;2023-10-13T14:11:41;20.80;99.90
1461;DHT22;724;49.910;12.530;2023-10-13T14:14:37;20.80;99.90
1461;DHT22;724;49.910;12.530;2023-10-13T14:17:11;20.70;99.90
1461;DHT22;724;49.910;12.530;2023-10-13T14:19:38;20.70;99.90
1461;DHT22;724;49.910;12.530;2023-10-13T14:22:06;20.70;99.90
1461;DHT22;724;49.910;12.530;2023-10-13T14:24:35;20.60;99.90
1461;DHT22;724;49.910;12.530;2023-10-13T14:27:09;20.60;99.90
1461;DHT22;724;49.910;12.530;2023-10-13T14:29:38;20.60;99.90
1461;DHT22;724;49.910;12.530;2023-10-13T14:32:08;20.50;99.90
1461;DHT22;724;49.910;12.530;2023-10-13T14:34:39;20.50;99.90
1461;DHT22;724;49.910;12.530;2023-10-13T14:37:06;20.80;99.90
1461;DHT22;724;49.910;12.530;2023-10-13T14:39:34;20.90;99.90
1461;DHT22;724;49.910;12.530;2023-10-13T14:42:03;20.90;99.90
1461;DHT22;724;49.910;12.530;2023-10-13T14:44:32;21.00;99.90
1461;DHT22;724;49.910;12.530;2023-10-13T14:46:59;20.80;99.90
1461;DHT22;724;49.910;12.530;2023-10-13T14:49:26;20.60;99.90
1461;DHT22;724;49.910;12.530;2023-10-13T14:51:52;20.70;99.90
1461;DHT22;724;49.910;12.530;2023-10-13T14:54:20;20.90;99.90
1461;DHT22;724;49.910;12.530;2023-10-13T14:57:00;21.10;99.90
1461;DHT22;724;49.910;12.530;2023-10-13T14:59:28;21.30;99.90
1461;DHT22;724;49.910;12.530;2023-10-13T15:01:59;21.40;99.90
1461;DHT22;724;49.910;12.530;2023-10-13T15:04:27;21.40;99.90
1461;DHT22;724;49.910;12.530;2023-10-13T15:06:54;21.40;99.90
1461;DHT22;724;49.910;12.530;2023-10-13T15:09:21;21.30;99.90
1461;DHT22;724;49.910;12.530;2023-10-13T15:11:50;21.30;99.90
1461;DHT22;724;49.910;12.530;2023-10-13T15:14:21;21.30;99.90
1461;DHT22;724;49.910;12.530;2023-10-13T15:16:50;21.20;99.90
1461;DHT22;724;49.910;12.530;2023-10-13T15:19:17;21.20;99.90
1461;DHT22;724;49.910;12.530;2023-10-13T15:21:44;21.20;99.90
1461;DHT22;724;49.910;12.530;2023-10-13T15:24:15;21.20;99.90
1461;DHT22;724;49.910;12.530;2023-10-13T15:26:42;21.10;99.90
1461;DHT22;724;49.910;12.530;2023-10-13T15:29:13;21.00;99.90
1461;DHT22;724;49.910;12.530;2023-10-13T15:31:43;20.80;99.90
1461;DHT22;724;49.910;12.530;2023-10-13T15:34:20;20.60;99.90
1461;DHT22;724;49.910;12.530;2023-10-13T15:36:49;20.50;99.90
1461;DHT22;724;49.910;12.530;2023-10-13T15:39:18;20.40;99.90
1461;DHT22;724;49.910;12.530;2023-10-13T15:41:49;20.30;99.90
1461;DHT22;724;49.910;12.530;2023-10-13T15:44:18;20.20;99.90
1461;DHT22;724;49.910;12.530;2023-10-13T15:46:48;20.30;99.90
1461;DHT22;724;49.910;12.530;2023-10-13T15:49:15;20.20;99.90
1461;DHT22;724;49.910;12.530;2023-10-13T15:51:42;20.00;99.90
1461;DHT22;724;49.910;12.530;2023-10-13T15:54:09;19.90;99.90
1461;DHT22;724;49.910;12.530;2023-10-13T15:56:40;19.80;99.90
1461;DHT22;724;49.910;12.530;2023-10-13T15:59:07;19.80;99.90
1461;DHT22;724;49.910;12.530;2023-10-13T16:01:34;19.60;99.90
1461;DHT22;724;49.910;12.530;2023-10-13T16:04:02;19.50;99.90
1461;DHT22;724;49.910;12.530;2023-10-13T16:06:36;19.30;99.90
1461;DHT22;724;49.910;12.530;2023-10-13T16:09:03;19.40;99.90
1461;DHT22;724;49.910;12.530;2023-10-13T16:11:32;19.30;99.90
1461;DHT22;724;49.910;12.530;2023-10-13T16:13:59;19.20;99.90
1461;DHT22;724;49.910;12.530;2023-10-13T16:16:25;18.90;99.90
1461;DHT22;724;49.910;12.530;2023-10-13T16:18:53;18.80;99.90
1461;DHT22;724;49.910;12.530;2023-10-13T16:21:21;18.60;99.90
1461;DHT22;724;49.910;12.530;2023-10-13T16:23:49;18.60;99.90
1461;DHT22;724;49.910;12.530;2023-10-13T16:26:16;18.50;99.90
1461;DHT22;724;49.910;12.530;2023-10-13T16:28:47;18.50;99.90
1461;DHT22;724;49.910;12.530;2023-10-13T16:31:13;18.40;99.90
1461;DHT22;724;49.910;12.530;2023-10-13T16:33:40;18.40;99.90
1461;DHT22;724;49.910;12.530;2023-10-13T16:36:07;18.40;99.90
1461;DHT22;724;49.910;12.530;2023-10-13T16:38:35;18.30;99.90
1461;DHT22;724;49.910;12.530;2023-10-13T16:41:02;18.20;99.90
1461;DHT22;724;49.910;12.530;2023-10-13T16:43:31;18.10;99.90
1461;DHT22;724;49.910;12.530;2023-10-13T16:45:58;17.80;99.90